createdAt,value
2018-07-12T00:01:56.047Z,18.97
2018-07-12T00:04:24.078Z,19.15
2018-07-12T00:06:51.317Z,18.37
2018-07-12T00:09:18.423Z,18.37
2018-07-12T00:11:45.642Z,18.53
2018-07-12T00:14:12.731Z,17.83
2018-07-12T00:16:39.859Z,20.67
2018-07-12T00:19:07.521Z,16.90
2018-07-12T00:21:35.441Z,19.27
2018-07-12T00:24:02.523Z,19.47
2018-07-12T00:26:29.934Z,19.93
2018-07-12T00:28:57.224Z,18.37
2018-07-12T00:31:24.712Z,18.90
2018-07-12T00:33:51.958Z,18.73
2018-07-12T00:36:18.969Z,19.60
2018-07-12T00:38:45.996Z,19.87
2018-07-12T00:41:13.091Z,19.13
2018-07-12T00:43:40.467Z,19.42
2018-07-12T00:46:07.577Z,19.17
2018-07-12T00:48:34.660Z,18.98
2018-07-12T00:51:01.842Z,18.63
2018-07-12T00:53:28.948Z,20.60
2018-07-12T00:55:56.012Z,19.80
2018-07-12T00:58:24.128Z,21.17
2018-07-12T01:00:51.213Z,21.77
2018-07-12T01:03:18.307Z,21.47
2018-07-12T01:05:45.407Z,19.93
2018-07-12T01:08:12.547Z,21.23
2018-07-12T01:10:39.863Z,21.82
2018-07-12T01:13:06.958Z,21.57
2018-07-12T01:15:34.048Z,20.32
2018-07-12T01:18:01.140Z,21.27
2018-07-12T01:20:28.285Z,20.60
2018-07-12T01:22:55.516Z,20.00
2018-07-12T01:25:22.710Z,19.87
2018-07-12T01:27:49.796Z,20.83
2018-07-12T01:30:16.928Z,20.67
2018-07-12T01:32:44.713Z,21.00
2018-07-12T01:35:11.822Z,20.70
2018-07-12T01:37:39.487Z,21.47
2018-07-12T01:40:06.579Z,20.40
2018-07-12T01:42:33.763Z,20.53
2018-07-12T01:45:00.860Z,19.60
2018-07-12T01:47:30.150Z,20.70
2018-07-12T01:49:57.361Z,20.32
2018-07-12T01:52:24.580Z,21.33
2018-07-12T01:54:51.712Z,19.43
2018-07-12T01:57:18.901Z,20.43
2018-07-12T01:59:46.064Z,20.40
2018-07-12T02:02:13.337Z,19.17
2018-07-12T02:04:40.497Z,20.90
2018-07-12T02:07:07.623Z,20.87
2018-07-12T02:09:34.778Z,20.60
2018-07-12T02:12:01.926Z,20.80
2018-07-12T02:14:29.071Z,20.87
2018-07-12T02:16:56.493Z,20.53
2018-07-12T02:19:24.522Z,18.52
2018-07-12T02:21:51.800Z,19.80
2018-07-12T02:24:18.893Z,20.53
2018-07-12T02:26:46.667Z,19.60
2018-07-12T02:29:13.820Z,19.97
2018-07-12T02:31:40.977Z,19.92
2018-07-12T02:34:08.068Z,20.48
2018-07-12T02:36:35.259Z,19.42
2018-07-12T02:39:02.334Z,19.90
2018-07-12T02:41:29.433Z,19.47
2018-07-12T02:43:56.546Z,20.53
2018-07-12T02:46:23.762Z,20.50
2018-07-12T02:48:51.883Z,20.33
2018-07-12T02:51:19.006Z,20.33
2018-07-12T02:53:46.079Z,19.50
2018-07-12T02:56:13.190Z,19.93
2018-07-12T02:58:40.607Z,20.53
2018-07-12T03:01:07.731Z,20.77
2018-07-12T03:03:34.918Z,19.52
2018-07-12T03:06:02.040Z,21.00
2018-07-12T03:08:29.147Z,20.37
2018-07-12T03:10:56.249Z,19.13
2018-07-12T03:13:23.448Z,20.20
2018-07-12T03:15:51.442Z,20.87
2018-07-12T03:18:18.535Z,19.47
2018-07-12T03:20:45.640Z,19.83
2018-07-12T03:23:12.740Z,20.93
2018-07-12T03:25:39.860Z,21.37
2018-07-12T03:28:07.183Z,20.97
2018-07-12T03:30:34.741Z,21.87
2018-07-12T03:33:01.875Z,19.32
2018-07-12T03:35:28.959Z,20.20
2018-07-12T03:37:56.067Z,20.60
2018-07-12T03:40:23.215Z,20.60
2018-07-12T03:42:50.329Z,19.70
2018-07-12T03:45:17.539Z,20.70
2018-07-12T03:47:44.786Z,19.07
2018-07-12T03:50:11.867Z,19.27
2018-07-12T03:52:38.984Z,21.10
2018-07-12T03:55:06.105Z,20.50
2018-07-12T03:57:33.226Z,20.03
2018-07-12T04:00:00.312Z,21.80
2018-07-12T04:02:27.403Z,21.40
2018-07-12T04:04:55.676Z,21.45
2018-07-12T04:07:22.779Z,21.90
2018-07-12T04:09:50.155Z,21.43
2018-07-12T04:12:17.252Z,22.10
2018-07-12T04:14:44.330Z,20.60
2018-07-12T04:17:15.584Z,21.95
2018-07-12T04:19:42.660Z,20.73
2018-07-12T04:22:09.744Z,22.50
2018-07-12T04:24:36.868Z,22.75
2018-07-12T04:27:03.994Z,24.00
2018-07-12T04:29:31.164Z,24.47
2018-07-12T04:31:58.287Z,25.20
2018-07-12T04:34:25.419Z,23.00
2018-07-12T04:36:52.465Z,24.20
2018-07-12T04:39:19.579Z,25.33
2018-07-12T04:41:46.639Z,24.07
2018-07-12T04:44:13.754Z,23.33
2018-07-12T04:46:40.883Z,25.03
2018-07-12T04:49:07.992Z,24.67
2018-07-12T04:51:35.072Z,24.17
2018-07-12T04:54:02.159Z,23.70
2018-07-12T04:56:30.120Z,23.20
2018-07-12T04:59:05.231Z,22.83
2018-07-12T05:01:32.672Z,24.80
2018-07-12T05:04:00.684Z,24.23
2018-07-12T05:06:27.818Z,23.23
2018-07-12T05:08:55.550Z,24.50
2018-07-12T05:11:23.434Z,24.20
2018-07-12T05:13:50.702Z,23.92
2018-07-12T05:16:17.893Z,21.93
2018-07-12T05:18:44.882Z,22.13
2018-07-12T05:21:11.987Z,23.37
2018-07-12T05:23:39.051Z,22.27
2018-07-12T05:26:06.151Z,22.15
2018-07-12T05:28:33.233Z,23.03
2018-07-12T05:31:00.427Z,21.40
2018-07-12T05:33:27.492Z,22.17
2018-07-12T05:35:55.652Z,21.53
2018-07-12T05:38:23.894Z,20.20
2018-07-12T05:40:51.998Z,19.87
2018-07-12T05:43:20.210Z,21.17
2018-07-12T05:45:48.360Z,20.60
2018-07-12T05:48:16.516Z,18.50
2018-07-12T05:50:47.061Z,18.52
2018-07-12T05:53:16.013Z,20.13
2018-07-12T05:55:44.110Z,20.20
2018-07-12T05:58:12.234Z,17.73
2018-07-12T06:00:40.606Z,18.20
2018-07-12T06:03:08.933Z,17.23
2018-07-12T06:05:37.127Z,17.83
2018-07-12T06:08:05.262Z,16.53
2018-07-12T06:10:33.871Z,16.57
2018-07-12T06:13:01.986Z,18.20
2018-07-12T06:15:30.126Z,18.60
2018-07-12T06:17:58.253Z,16.43
2018-07-12T06:20:27.073Z,16.97
2018-07-12T06:22:55.514Z,17.77
2018-07-12T06:25:23.729Z,16.90
2018-07-12T06:27:51.885Z,18.00
2018-07-12T06:30:19.954Z,18.03
2018-07-12T06:32:48.026Z,17.92
2018-07-12T06:35:16.183Z,18.50
2018-07-12T06:37:44.293Z,18.57
2018-07-12T06:40:12.472Z,17.30
2018-07-12T06:42:40.856Z,17.85
2018-07-12T06:45:08.874Z,16.30
2018-07-12T06:47:36.954Z,16.97
2018-07-12T06:50:05.119Z,16.30
2018-07-12T06:52:33.230Z,15.63
2018-07-12T06:55:01.408Z,16.35
2018-07-12T06:57:29.542Z,15.03
2018-07-12T06:59:57.778Z,14.23
2018-07-12T07:02:25.860Z,14.70
2018-07-12T07:04:53.934Z,14.43
2018-07-12T07:07:22.022Z,14.10
2018-07-12T07:09:50.152Z,13.60
2018-07-12T07:15:08.679Z,12.50
2018-07-12T07:17:36.905Z,12.33
2018-07-12T07:20:05.061Z,11.60
2018-07-12T07:22:33.191Z,11.50
2018-07-12T07:25:01.371Z,12.17
2018-07-12T07:27:30.909Z,12.23
2018-07-12T07:29:59.124Z,10.63
2018-07-12T07:32:27.671Z,12.63
2018-07-12T07:34:55.830Z,11.20
2018-07-12T07:37:24.077Z,11.40
2018-07-12T07:39:52.270Z,11.03
2018-07-12T07:42:20.599Z,12.10
2018-07-12T07:44:48.698Z,10.50
2018-07-12T07:47:16.844Z,10.83
2018-07-12T07:49:45.104Z,9.73
2018-07-12T07:52:13.564Z,9.70
2018-07-12T07:54:41.700Z,9.17
2018-07-12T07:57:10.125Z,8.87
2018-07-12T07:59:38.188Z,9.40
2018-07-12T08:02:06.313Z,7.50
2018-07-12T08:04:34.422Z,7.43
2018-07-12T08:07:02.700Z,7.78
2018-07-12T08:09:30.932Z,7.67
2018-07-12T08:11:59.054Z,8.17
2018-07-12T08:14:27.843Z,7.53
2018-07-12T08:16:56.210Z,7.57
2018-07-12T08:19:24.364Z,7.60
2018-07-12T08:22:03.431Z,7.50
2018-07-12T08:24:31.672Z,7.63
2018-07-12T08:27:00.040Z,7.50
2018-07-12T08:29:28.195Z,8.93
2018-07-12T08:31:56.312Z,9.53
2018-07-12T08:34:24.483Z,9.50
2018-07-12T08:36:52.781Z,9.40
2018-07-12T08:39:20.918Z,8.83
2018-07-12T08:41:49.167Z,7.60
2018-07-12T08:44:17.530Z,8.57
2018-07-12T08:46:45.922Z,7.35
2018-07-12T08:49:14.066Z,7.97
2018-07-12T08:51:42.385Z,7.20
2018-07-12T08:54:10.685Z,6.97
2018-07-12T08:56:39.023Z,6.80
2018-07-12T08:59:07.811Z,5.80
2018-07-12T09:01:35.973Z,7.37
2018-07-12T09:04:04.258Z,8.35
2018-07-12T09:06:32.599Z,5.60
2018-07-12T09:09:00.722Z,6.37
2018-07-12T09:11:28.963Z,5.40
2018-07-12T09:13:58.198Z,6.03
2018-07-12T09:16:26.459Z,5.40
2018-07-12T09:18:57.012Z,6.07
2018-07-12T09:21:25.343Z,5.70
2018-07-12T09:23:53.539Z,6.07
2018-07-12T09:26:21.743Z,5.53
2018-07-12T09:28:51.956Z,6.00
2018-07-12T09:31:20.299Z,6.20
2018-07-12T09:33:48.746Z,6.03
2018-07-12T09:36:17.150Z,4.80
2018-07-12T09:38:47.517Z,5.43
2018-07-12T09:41:16.033Z,5.22
2018-07-12T09:43:45.091Z,5.58
2018-07-12T09:46:13.233Z,5.72
2018-07-12T09:48:42.691Z,5.83
2018-07-12T09:51:11.642Z,4.87
2018-07-12T09:53:40.651Z,4.90
2018-07-12T09:56:08.868Z,5.97
2018-07-12T09:58:38.203Z,6.22
2018-07-12T10:01:13.889Z,5.77
2018-07-12T10:03:48.303Z,4.87
2018-07-12T10:06:21.897Z,4.70
2018-07-12T10:08:55.948Z,4.50
2018-07-12T10:11:29.342Z,3.87
2018-07-12T10:14:02.874Z,4.10
2018-07-12T10:16:36.181Z,3.87
2018-07-12T10:19:04.315Z,3.95
2018-07-12T10:21:32.563Z,3.50
2018-07-12T10:24:00.699Z,3.90
2018-07-12T10:26:29.912Z,3.83
2018-07-12T10:28:59.424Z,4.20
2018-07-12T10:31:27.568Z,4.40
2018-07-12T10:33:55.692Z,4.00
2018-07-12T10:36:23.864Z,4.80
2018-07-12T10:38:52.143Z,4.53
2018-07-12T10:41:20.379Z,4.30
2018-07-12T10:43:48.712Z,5.00
2018-07-12T10:46:17.002Z,5.73
2018-07-12T10:48:45.254Z,5.65
2018-07-12T10:51:13.380Z,5.40
2018-07-12T10:53:41.520Z,6.30
2018-07-12T10:56:09.682Z,5.43
2018-07-12T10:58:37.797Z,4.50
2018-07-12T11:01:06.174Z,4.47
2018-07-12T11:03:34.291Z,4.90
2018-07-12T11:06:02.369Z,4.97
2018-07-12T11:08:30.599Z,4.20
2018-07-12T11:10:58.827Z,4.33
2018-07-12T11:13:38.178Z,4.40
2018-07-12T11:16:06.269Z,4.60
2018-07-12T11:18:34.388Z,4.77
2018-07-12T11:21:02.805Z,4.40
2018-07-12T11:23:31.592Z,5.23
2018-07-12T11:25:59.932Z,4.57
2018-07-12T11:28:28.034Z,4.37
2018-07-12T11:30:56.182Z,4.93
2018-07-12T11:33:42.203Z,4.93
2018-07-12T11:36:10.580Z,4.60
2018-07-12T11:38:39.754Z,3.70
2018-07-12T11:41:08.469Z,3.90
2018-07-12T11:43:36.640Z,3.70
2018-07-12T11:46:06.964Z,3.70
2018-07-12T11:48:36.350Z,3.33
2018-07-12T11:51:04.866Z,4.80
2018-07-12T11:53:33.011Z,3.97
2018-07-12T11:56:01.160Z,3.40
2018-07-12T11:58:29.266Z,3.17
2018-07-12T12:00:58.278Z,3.87
2018-07-12T12:03:26.889Z,3.63
2018-07-12T12:05:55.084Z,4.03
2018-07-12T12:08:23.511Z,3.30
2018-07-12T12:10:51.831Z,2.87
2018-07-12T12:13:20.159Z,2.93
2018-07-12T12:15:48.218Z,3.43
2018-07-12T12:18:17.323Z,2.98
2018-07-12T12:20:45.567Z,3.03
2018-07-12T12:23:15.646Z,2.87
2018-07-12T12:25:43.816Z,2.43
2018-07-12T12:28:18.603Z,2.12
2018-07-12T12:30:47.015Z,2.12
2018-07-12T12:33:15.228Z,2.87
2018-07-12T12:35:43.740Z,2.40
2018-07-12T12:38:13.138Z,2.70
2018-07-12T12:40:42.173Z,3.00
2018-07-12T12:43:10.452Z,2.57
2018-07-12T12:45:38.769Z,2.87
2018-07-12T12:48:06.884Z,2.80
2018-07-12T12:50:37.241Z,3.10
2018-07-12T12:53:05.407Z,2.50
2018-07-12T12:55:33.720Z,3.23
2018-07-12T12:58:01.900Z,3.37
2018-07-12T13:00:30.008Z,3.23
2018-07-12T13:02:58.133Z,3.00
2018-07-12T13:05:26.448Z,3.47
2018-07-12T13:07:54.604Z,2.97
2018-07-12T13:10:23.081Z,3.67
2018-07-12T13:12:51.451Z,3.50
2018-07-12T13:15:19.933Z,3.43
2018-07-12T13:17:48.394Z,2.90
2018-07-12T13:20:16.579Z,3.45
2018-07-12T13:22:44.862Z,2.83
2018-07-12T13:25:13.125Z,3.45
2018-07-12T13:27:41.351Z,2.90
2018-07-12T13:30:10.359Z,2.83
2018-07-12T13:32:38.515Z,2.97
2018-07-12T13:35:06.608Z,2.98
2018-07-12T13:37:34.901Z,3.20
2018-07-12T13:40:03.193Z,2.97
2018-07-12T13:42:31.683Z,2.83
2018-07-12T13:45:00.137Z,2.73
2018-07-12T13:47:28.730Z,2.80
2018-07-12T13:49:58.627Z,2.60
2018-07-12T13:52:27.101Z,3.07
2018-07-12T13:54:55.493Z,2.83
2018-07-12T13:57:24.093Z,2.80
2018-07-12T13:59:53.432Z,2.80
2018-07-12T14:02:22.119Z,2.80
2018-07-12T14:04:50.653Z,2.30
2018-07-12T14:07:18.973Z,3.10
2018-07-12T14:09:47.226Z,2.87
2018-07-12T14:12:15.452Z,3.02
2018-07-12T14:14:43.584Z,3.33
2018-07-12T14:17:12.566Z,2.43
2018-07-12T14:19:41.030Z,2.92
2018-07-12T14:22:09.323Z,2.90
2018-07-12T14:24:37.561Z,2.63
2018-07-12T14:27:05.879Z,2.90
2018-07-12T14:29:34.005Z,2.93
2018-07-12T14:32:03.375Z,2.60
2018-07-12T14:34:32.002Z,3.07
2018-07-12T14:37:00.603Z,3.13
2018-07-12T14:39:28.802Z,2.63
2018-07-12T14:41:56.967Z,2.40
2018-07-12T14:44:25.570Z,2.30
2018-07-12T14:46:53.770Z,2.73
2018-07-12T14:49:22.202Z,2.30
2018-07-12T14:51:50.384Z,2.33
2018-07-12T14:54:18.462Z,2.50
2018-07-12T14:56:46.644Z,2.42
2018-07-12T14:59:14.791Z,3.00
2018-07-12T15:01:43.081Z,2.75
2018-07-12T15:04:11.336Z,2.52
2018-07-12T15:06:39.859Z,2.90
2018-07-12T15:09:08.795Z,2.67
2018-07-12T15:11:37.612Z,2.77
2018-07-12T15:14:05.991Z,2.52
2018-07-12T15:16:34.201Z,3.00
2018-07-12T15:19:02.652Z,2.60
2018-07-12T15:21:31.976Z,2.13
2018-07-12T15:24:00.446Z,2.40
2018-07-12T15:26:28.646Z,2.70
2018-07-12T15:28:56.755Z,2.43
2018-07-12T15:31:25.352Z,2.57
2018-07-12T15:33:54.484Z,2.50
2018-07-12T15:36:22.712Z,2.60
2018-07-12T15:38:50.870Z,2.37
2018-07-12T15:41:18.975Z,1.90
2018-07-12T15:43:47.095Z,2.15
2018-07-12T15:46:15.215Z,2.10
2018-07-12T15:48:43.371Z,2.13
2018-07-12T15:51:12.115Z,1.80
2018-07-12T15:53:40.389Z,1.90
2018-07-12T15:56:08.598Z,2.00
2018-07-12T15:58:37.175Z,2.50
2018-07-12T16:01:05.759Z,2.00
2018-07-12T16:03:34.241Z,1.93
2018-07-12T16:06:02.455Z,2.13
2018-07-12T16:08:30.857Z,1.92
2018-07-12T16:10:58.992Z,2.40
2018-07-12T16:13:27.215Z,2.90
2018-07-12T16:15:55.645Z,3.37
2018-07-12T16:18:24.054Z,2.47
2018-07-12T16:20:52.516Z,2.70
2018-07-12T16:23:20.601Z,2.93
2018-07-12T16:25:49.274Z,2.73
2018-07-12T16:28:18.094Z,2.22
2018-07-12T16:30:46.603Z,2.27
2018-07-12T16:33:14.912Z,3.35
2018-07-12T16:35:43.107Z,2.45
2018-07-12T16:38:11.279Z,2.70
2018-07-12T16:40:39.424Z,2.30
2018-07-12T16:43:07.591Z,2.70
2018-07-12T16:45:36.876Z,2.42
2018-07-12T16:48:05.146Z,2.40
2018-07-12T16:50:33.340Z,2.50
2018-07-12T16:53:01.499Z,2.90
2018-07-12T16:55:30.590Z,3.10
2018-07-12T16:57:58.690Z,2.20
2018-07-12T17:00:26.857Z,2.87
2018-07-12T17:02:55.065Z,3.13
2018-07-12T17:05:23.216Z,2.73
2018-07-12T17:07:51.430Z,2.70
2018-07-12T17:10:19.562Z,3.67
2018-07-12T17:12:47.780Z,3.02
2018-07-12T17:15:15.892Z,2.63
2018-07-12T17:17:44.207Z,4.47
2018-07-12T17:20:12.748Z,2.87
2018-07-12T17:22:40.922Z,2.60
2018-07-12T17:25:09.024Z,2.55
2018-07-12T17:27:37.111Z,2.67
2018-07-12T17:30:05.744Z,2.77
2018-07-12T17:32:34.258Z,2.63
2018-07-12T17:35:02.535Z,2.50
2018-07-12T17:37:31.064Z,2.60
2018-07-12T17:39:59.186Z,2.50
2018-07-12T17:42:27.293Z,2.60
2018-07-12T17:44:55.448Z,2.63
2018-07-12T17:47:23.769Z,2.83
2018-07-12T17:49:51.813Z,3.00
2018-07-12T17:52:20.142Z,2.60
2018-07-12T17:54:48.303Z,2.80
2018-07-12T17:57:16.424Z,2.67
2018-07-12T17:59:44.567Z,2.70
2018-07-12T18:02:12.791Z,2.58
2018-07-12T18:04:40.964Z,2.65
2018-07-12T18:07:09.082Z,3.00
2018-07-12T18:09:37.200Z,2.57
2018-07-12T18:12:05.499Z,2.40
2018-07-12T18:14:33.887Z,2.70
2018-07-12T18:17:01.977Z,2.67
2018-07-12T18:19:30.831Z,3.20
2018-07-12T18:21:59.274Z,2.83
2018-07-12T18:24:28.142Z,2.57
2018-07-12T18:26:56.322Z,3.20
2018-07-12T18:29:24.641Z,2.93
2018-07-12T18:31:52.826Z,3.15
2018-07-12T18:34:22.119Z,3.40
2018-07-12T18:36:50.257Z,2.70
2018-07-12T18:39:18.657Z,3.37
2018-07-12T18:41:46.930Z,2.80
2018-07-12T18:44:15.136Z,2.70
2018-07-12T18:46:43.358Z,2.50
2018-07-12T18:49:12.090Z,3.17
2018-07-12T18:51:40.470Z,2.50
2018-07-12T18:54:08.791Z,3.70
2018-07-12T18:56:36.904Z,2.97
2018-07-12T18:59:05.267Z,2.90
2018-07-12T19:01:33.700Z,2.97
2018-07-12T19:04:01.839Z,2.93
2018-07-12T19:06:30.983Z,2.98
2018-07-12T19:08:59.346Z,2.97
2018-07-12T19:11:27.399Z,3.10
2018-07-12T19:13:55.761Z,3.23
2018-07-12T19:16:23.943Z,2.87
2018-07-12T19:18:55.050Z,3.40
2018-07-12T19:21:23.284Z,2.90
2018-07-12T19:23:51.375Z,3.70
2018-07-12T19:26:19.509Z,3.30
2018-07-12T19:28:47.619Z,3.60
2018-07-12T19:31:15.788Z,3.05
2018-07-12T19:33:43.930Z,2.92
2018-07-12T19:36:12.037Z,3.30
2018-07-12T19:38:40.159Z,3.47
2018-07-12T19:41:08.532Z,3.53
2018-07-12T19:43:37.251Z,4.53
2018-07-12T19:46:05.344Z,4.00
2018-07-12T19:48:33.469Z,4.63
2018-07-12T19:51:01.933Z,4.73
2018-07-12T19:53:30.458Z,4.37
2018-07-12T19:55:58.612Z,4.37
2018-07-12T19:58:26.677Z,4.43
2018-07-12T20:00:54.797Z,4.77
2018-07-12T20:03:23.921Z,5.00
2018-07-12T20:05:51.971Z,8.63
2018-07-12T20:08:20.064Z,4.70
2018-07-12T20:10:48.621Z,4.80
2018-07-12T20:13:43.073Z,5.03
2018-07-12T20:16:13.608Z,5.30
2018-07-12T20:18:41.748Z,4.90
2018-07-12T20:21:09.944Z,4.47
2018-07-12T20:23:48.048Z,4.50
2018-07-12T20:26:16.395Z,5.00
2018-07-12T20:28:44.904Z,5.00
2018-07-12T20:31:13.253Z,5.30
2018-07-12T20:33:41.318Z,4.45
2018-07-12T20:36:09.444Z,5.13
2018-07-12T20:38:37.567Z,4.80
2018-07-12T20:41:06.000Z,4.63
2018-07-12T20:43:34.167Z,4.50
2018-07-12T20:46:02.327Z,5.00
2018-07-12T20:48:31.439Z,4.53
2018-07-12T20:50:59.788Z,5.07
2018-07-12T20:53:28.036Z,5.20
2018-07-12T20:55:56.279Z,4.80
2018-07-12T20:58:24.533Z,4.80
2018-07-12T21:00:52.679Z,5.63
2018-07-12T21:03:20.844Z,5.33
2018-07-12T21:05:48.979Z,5.10
2018-07-12T21:08:17.393Z,5.25
2018-07-12T21:10:45.628Z,5.28
2018-07-12T21:13:15.016Z,5.10
2018-07-12T21:15:43.199Z,5.47
2018-07-12T21:18:11.368Z,5.87
2018-07-12T21:20:39.562Z,5.47
2018-07-12T21:23:07.872Z,7.62
2018-07-12T21:25:37.031Z,6.80
2018-07-12T21:28:05.283Z,7.40
2018-07-12T21:30:33.667Z,6.40
2018-07-12T21:33:01.840Z,5.70
2018-07-12T21:35:29.969Z,6.50
2018-07-12T21:37:58.137Z,6.60
2018-07-12T21:40:26.246Z,6.20
2018-07-12T21:42:54.448Z,6.20
2018-07-12T21:45:22.536Z,6.40
2018-07-12T21:47:50.700Z,6.17
2018-07-12T21:50:20.982Z,6.60
2018-07-12T21:52:49.157Z,7.90
2018-07-12T21:55:17.287Z,12.63
2018-07-12T21:57:45.478Z,5.93
2018-07-12T22:00:14.228Z,6.40
2018-07-12T22:02:42.468Z,6.13
2018-07-12T22:05:10.772Z,6.10
2018-07-12T22:07:50.736Z,6.47
2018-07-12T22:10:18.941Z,5.90
2018-07-12T22:12:47.213Z,6.50
2018-07-12T22:15:15.682Z,6.00
2018-07-12T22:17:43.838Z,6.12
2018-07-12T22:20:11.999Z,6.40
2018-07-12T22:22:40.202Z,6.43
2018-07-12T22:25:08.359Z,10.40
2018-07-12T22:27:36.512Z,12.58
2018-07-12T22:30:06.808Z,7.13
2018-07-12T22:32:37.294Z,6.63
2018-07-12T22:35:05.616Z,7.60
2018-07-12T22:37:33.747Z,6.10
2018-07-12T22:40:01.872Z,6.25
2018-07-12T22:42:30.241Z,6.07
2018-07-12T22:44:58.782Z,6.90
2018-07-12T22:47:27.038Z,6.40
2018-07-12T22:49:55.195Z,7.10
2018-07-12T22:52:23.414Z,5.97
2018-07-12T22:54:51.967Z,7.00
2018-07-12T22:57:20.313Z,7.23
2018-07-12T22:59:48.894Z,6.97
2018-07-12T23:02:17.187Z,6.47
2018-07-12T23:04:45.671Z,6.30
2018-07-12T23:07:13.924Z,5.97
2018-07-12T23:09:42.050Z,7.00
2018-07-12T23:12:10.234Z,7.35
2018-07-12T23:14:40.146Z,5.90
2018-07-12T23:17:08.293Z,6.70
2018-07-12T23:19:37.287Z,6.60
2018-07-12T23:22:05.655Z,9.20
2018-07-12T23:24:33.872Z,7.90
2018-07-12T23:27:02.220Z,7.60
2018-07-12T23:29:31.411Z,6.87
2018-07-12T23:31:59.536Z,6.70
2018-07-12T23:34:27.797Z,7.23
2018-07-12T23:36:55.931Z,6.60
2018-07-12T23:39:24.105Z,7.03
2018-07-12T23:41:52.273Z,7.33
2018-07-12T23:44:20.417Z,6.77
2018-07-12T23:46:49.787Z,7.53
2018-07-12T23:49:17.908Z,7.40
2018-07-12T23:51:46.119Z,8.13
2018-07-12T23:54:14.243Z,7.93
2018-07-12T23:56:42.334Z,6.97
2018-07-12T23:59:10.486Z,7.30
